createdAt,value
2018-09-05T00:02:21.621Z,7.23
2018-09-05T00:04:47.594Z,7.27
2018-09-05T00:07:13.676Z,7.60
2018-09-05T00:09:39.650Z,6.97
2018-09-05T00:12:06.385Z,6.77
2018-09-05T00:14:32.402Z,6.70
2018-09-05T00:16:59.145Z,6.20
2018-09-05T00:19:25.854Z,6.40
2018-09-05T00:21:51.862Z,5.80
2018-09-05T00:24:17.824Z,5.80
2018-09-05T00:26:44.531Z,5.57
2018-09-05T00:29:10.529Z,5.60
2018-09-05T00:31:36.506Z,5.80
2018-09-05T00:34:02.510Z,5.23
2018-09-05T00:36:28.511Z,5.37
2018-09-05T00:38:54.511Z,4.83
2018-09-05T00:41:20.473Z,5.10
2018-09-05T00:43:46.481Z,5.57
2018-09-05T00:46:12.449Z,4.80
2018-09-05T00:48:38.448Z,4.70
2018-09-05T00:51:05.188Z,5.23
2018-09-05T00:53:31.191Z,5.07
2018-09-05T00:55:57.178Z,4.77
2018-09-05T00:58:23.209Z,5.07
2018-09-05T01:00:49.167Z,5.17
2018-09-05T01:03:15.184Z,5.10
2018-09-05T01:05:41.132Z,4.90
2018-09-05T01:08:07.133Z,5.37
2018-09-05T01:10:33.104Z,4.97
2018-09-05T01:12:59.840Z,4.50
2018-09-05T01:15:26.555Z,4.77
2018-09-05T01:17:52.566Z,5.40
2018-09-05T01:20:18.570Z,5.10
2018-09-05T01:22:44.575Z,5.47
2018-09-05T01:25:10.553Z,5.30
2018-09-05T01:27:36.558Z,5.20
2018-09-05T01:30:02.567Z,4.77
2018-09-05T01:32:28.541Z,5.10
2018-09-05T01:34:55.277Z,5.23
2018-09-05T01:37:21.231Z,4.93
2018-09-05T01:39:47.226Z,5.23
2018-09-05T01:42:13.196Z,4.37
2018-09-05T01:44:39.365Z,4.97
2018-09-05T01:47:05.381Z,5.03
2018-09-05T01:49:31.385Z,5.27
2018-09-05T01:51:57.374Z,4.87
2018-09-05T01:54:23.377Z,4.77
2018-09-05T01:56:49.322Z,5.07
2018-09-05T01:59:15.332Z,5.00
2018-09-05T02:01:41.294Z,5.50
2018-09-05T02:04:07.295Z,5.13
2018-09-05T02:06:33.239Z,5.20
2018-09-05T02:08:59.283Z,5.60
2018-09-05T02:11:25.246Z,5.47
2018-09-05T02:13:51.999Z,5.77
2018-09-05T02:16:17.965Z,4.83
2018-09-05T02:18:43.973Z,5.87
2018-09-05T02:21:09.933Z,5.83
2018-09-05T02:23:35.891Z,5.20
2018-09-05T02:26:01.879Z,5.30
2018-09-05T02:28:27.906Z,5.40
2018-09-05T02:30:53.890Z,5.50
2018-09-05T02:33:19.832Z,5.70
2018-09-05T02:35:45.834Z,5.57
2018-09-05T02:38:12.395Z,5.60
2018-09-05T02:40:38.423Z,6.47
2018-09-05T02:43:04.399Z,6.00
2018-09-05T02:45:30.429Z,6.00
2018-09-05T02:47:56.446Z,5.57
2018-09-05T02:50:22.451Z,5.50
2018-09-05T02:52:49.156Z,5.20
2018-09-05T02:55:15.157Z,5.60
2018-09-05T02:57:41.124Z,5.27
2018-09-05T03:00:07.084Z,4.67
2018-09-05T03:02:33.088Z,4.97
2018-09-05T03:04:59.785Z,5.30
2018-09-05T03:07:25.787Z,5.33
2018-09-05T03:09:51.789Z,5.30
2018-09-05T03:12:17.814Z,4.93
2018-09-05T03:14:43.787Z,5.50
2018-09-05T03:17:09.824Z,5.67
2018-09-05T03:19:35.826Z,5.13
2018-09-05T03:22:01.792Z,4.80
2018-09-05T03:24:27.777Z,4.60
2018-09-05T03:26:53.773Z,5.03
2018-09-05T03:29:19.764Z,5.40
2018-09-05T03:31:45.725Z,5.20
2018-09-05T03:34:11.719Z,5.13
2018-09-05T03:36:37.669Z,5.13
2018-09-05T03:39:03.738Z,6.17
2018-09-05T03:41:29.711Z,5.33
2018-09-05T03:43:55.698Z,5.00
2018-09-05T03:46:21.736Z,5.27
2018-09-05T03:48:47.739Z,4.70
2018-09-05T03:51:13.735Z,5.40
2018-09-05T03:53:39.697Z,5.43
2018-09-05T03:56:06.428Z,5.17
2018-09-05T03:58:33.116Z,4.97
2018-09-05T04:00:59.130Z,5.80
2018-09-05T04:03:25.130Z,6.17
2018-09-05T04:05:51.127Z,5.97
2018-09-05T04:08:17.849Z,5.77
2018-09-05T04:10:43.820Z,5.30
2018-09-05T04:13:09.828Z,5.57
2018-09-05T04:15:36.534Z,5.93
2018-09-05T04:18:02.527Z,5.60
2018-09-05T04:20:28.483Z,5.90
2018-09-05T04:22:54.479Z,5.97
2018-09-05T04:25:20.436Z,6.00
2018-09-05T04:27:46.427Z,5.70
2018-09-05T04:30:12.409Z,6.23
2018-09-05T04:32:39.143Z,5.60
2018-09-05T04:35:05.908Z,5.87
2018-09-05T04:37:31.912Z,5.73
2018-09-05T04:39:57.871Z,6.70
2018-09-05T04:42:23.834Z,6.10
2018-09-05T04:44:49.806Z,6.80
2018-09-05T04:47:16.503Z,7.07
2018-09-05T04:49:43.257Z,6.60
2018-09-05T04:52:09.249Z,6.90
2018-09-05T04:54:35.259Z,7.03
2018-09-05T04:57:01.216Z,6.47
2018-09-05T04:59:27.928Z,6.63
2018-09-05T05:01:53.900Z,6.40
2018-09-05T05:04:19.898Z,6.43
2018-09-05T05:06:46.621Z,6.43
2018-09-05T05:09:12.589Z,6.60
2018-09-05T05:11:38.630Z,7.43
2018-09-05T05:14:04.664Z,7.40
2018-09-05T05:16:31.486Z,6.53
2018-09-05T05:18:57.534Z,6.97
2018-09-05T05:21:23.614Z,6.60
2018-09-05T05:23:49.658Z,6.70
2018-09-05T05:26:15.728Z,7.37
2018-09-05T05:28:42.210Z,7.17
2018-09-05T05:31:08.276Z,6.60
2018-09-05T05:33:35.045Z,7.13
2018-09-05T05:36:01.825Z,7.03
2018-09-05T05:38:27.843Z,7.80
2018-09-05T05:40:53.856Z,7.57
2018-09-05T05:43:19.877Z,7.97
2018-09-05T05:45:45.884Z,7.50
2018-09-05T05:48:12.644Z,7.43
2018-09-05T05:50:38.632Z,7.90
2018-09-05T05:53:04.659Z,7.23
2018-09-05T05:55:30.659Z,8.27
2018-09-05T05:57:56.707Z,6.90
2018-09-05T06:00:23.467Z,7.60
2018-09-05T06:02:50.223Z,7.60
2018-09-05T06:05:16.947Z,8.33
2018-09-05T06:07:42.971Z,7.63
2018-09-05T06:10:08.970Z,7.90
2018-09-05T06:12:35.002Z,7.07
2018-09-05T06:15:01.105Z,7.77
2018-09-05T06:17:27.435Z,6.47
2018-09-05T06:19:53.535Z,7.03
2018-09-05T06:22:20.468Z,7.50
2018-09-05T06:24:46.563Z,7.43
2018-09-05T06:27:12.750Z,8.17
2018-09-05T06:29:38.844Z,7.67
2018-09-05T06:32:04.919Z,7.17
2018-09-05T06:34:31.808Z,7.20
2018-09-05T06:36:58.140Z,7.00
2018-09-05T06:39:24.192Z,6.80
2018-09-05T06:41:50.215Z,6.97
2018-09-05T06:44:16.250Z,6.43
2018-09-05T06:46:43.043Z,6.57
2018-09-05T06:49:09.122Z,6.20
2018-09-05T06:51:35.134Z,6.23
2018-09-05T06:54:01.265Z,6.37
2018-09-05T06:56:28.242Z,6.03
2018-09-05T06:58:54.296Z,6.00
2018-09-05T07:01:20.341Z,6.20
2018-09-05T07:03:46.404Z,6.20
2018-09-05T07:06:12.370Z,6.03
2018-09-05T07:08:38.442Z,5.43
2018-09-05T07:11:04.433Z,5.90
2018-09-05T07:13:30.431Z,6.33
2018-09-05T07:15:56.495Z,5.77
2018-09-05T07:18:24.540Z,5.97
2018-09-05T07:20:50.812Z,5.60
2018-09-05T07:23:16.872Z,5.67
2018-09-05T07:25:43.681Z,5.97
2018-09-05T07:28:09.807Z,5.50
2018-09-05T07:30:36.612Z,5.33
2018-09-05T07:33:02.626Z,5.67
2018-09-05T07:35:28.719Z,5.23
2018-09-05T07:37:54.714Z,5.90
2018-09-05T07:40:20.898Z,5.20
2018-09-05T07:42:46.945Z,5.27
2018-09-05T07:45:12.945Z,5.70
2018-09-05T07:47:38.967Z,5.63
2018-09-05T07:50:07.998Z,5.17
2018-09-05T07:52:35.051Z,5.70
2018-09-05T07:55:01.236Z,4.82
2018-09-05T07:57:29.163Z,5.30
2018-09-05T07:59:56.352Z,5.43
2018-09-05T08:02:22.478Z,5.03
2018-09-05T08:04:48.704Z,5.40
2018-09-05T08:07:14.946Z,5.17
2018-09-05T08:09:41.095Z,5.13
2018-09-05T08:12:08.005Z,5.27
2018-09-05T08:14:34.106Z,5.45
2018-09-05T08:17:01.820Z,4.57
2018-09-05T08:19:33.086Z,5.28
2018-09-05T08:21:59.737Z,4.78
2018-09-05T08:24:25.781Z,5.40
2018-09-05T08:29:29.027Z,5.05
2018-09-05T08:31:56.022Z,4.50
2018-09-05T08:34:24.141Z,4.80
2018-09-05T08:36:54.228Z,4.97
2018-09-05T08:39:23.755Z,4.85
2018-09-05T08:41:53.382Z,4.97
2018-09-05T08:44:22.509Z,4.70
2018-09-05T08:46:50.809Z,4.70
2018-09-05T08:49:16.907Z,5.12
2018-09-05T08:51:42.996Z,4.75
2018-09-05T08:54:10.146Z,4.28
2018-09-05T08:56:36.441Z,4.72
2018-09-05T08:59:02.499Z,3.95
2018-09-05T09:01:28.508Z,4.35
2018-09-05T09:03:55.362Z,4.55
2018-09-05T09:06:22.194Z,4.18
2018-09-05T09:08:48.450Z,3.65
2018-09-05T09:11:16.474Z,4.00
2018-09-05T09:16:16.982Z,3.92
2018-09-05T09:18:53.049Z,4.07
2018-09-05T09:21:19.170Z,3.65
2018-09-05T09:26:28.916Z,3.90
2018-09-05T09:29:02.171Z,2.95
2018-09-05T09:31:33.341Z,3.30
2018-09-05T09:34:20.157Z,3.22
2018-09-05T09:42:14.450Z,3.15
2018-09-05T09:44:41.266Z,2.83
2018-09-05T09:47:07.280Z,2.80
2018-09-05T09:49:34.441Z,3.05
2018-09-05T09:52:01.647Z,3.20
2018-09-05T09:54:28.339Z,2.70
2018-09-05T09:56:54.361Z,3.08
2018-09-05T09:59:20.338Z,3.30
2018-09-05T10:01:47.495Z,2.80
2018-09-05T10:04:16.520Z,2.97
2018-09-05T10:06:43.701Z,3.00
2018-09-05T10:09:13.570Z,2.83
2018-09-05T10:11:39.650Z,2.40
2018-09-05T10:14:05.664Z,2.23
2018-09-05T10:16:31.643Z,2.60
2018-09-05T10:18:57.665Z,2.50
2018-09-05T10:21:23.739Z,2.00
2018-09-05T10:23:49.808Z,2.50
2018-09-05T10:26:17.711Z,2.30
2018-09-05T10:28:43.858Z,3.10
2018-09-05T10:31:11.449Z,2.70
2018-09-05T10:33:37.477Z,2.53
2018-09-05T10:36:03.515Z,2.43
2018-09-05T10:38:29.545Z,2.20
2018-09-05T10:40:55.614Z,2.47
2018-09-05T10:43:21.661Z,2.80
2018-09-05T10:45:48.456Z,3.07
2018-09-05T10:48:14.547Z,2.70
2018-09-05T10:50:40.595Z,2.57
2018-09-05T10:53:06.629Z,2.60
2018-09-05T10:55:32.763Z,2.57
2018-09-05T10:57:59.585Z,2.10
2018-09-05T11:00:25.646Z,2.50
2018-09-05T11:02:51.649Z,2.80
2018-09-05T11:05:17.650Z,2.80
2018-09-05T11:07:43.653Z,2.47
2018-09-05T11:10:10.383Z,2.70
2018-09-05T11:12:36.401Z,2.40
2018-09-05T11:15:03.165Z,2.60
2018-09-05T11:17:29.157Z,2.40
2018-09-05T11:19:56.192Z,2.40
2018-09-05T11:22:22.940Z,2.93
2018-09-05T11:24:48.928Z,2.70
2018-09-05T11:27:14.921Z,3.03
2018-09-05T11:29:41.698Z,2.67
2018-09-05T11:32:08.733Z,2.50
2018-09-05T11:34:34.723Z,2.77
2018-09-05T11:37:01.485Z,2.70
2018-09-05T11:39:27.529Z,2.67
2018-09-05T11:41:53.532Z,2.73
2018-09-05T11:44:19.585Z,2.50
2018-09-05T11:46:45.632Z,2.50
2018-09-05T11:49:11.652Z,2.47
2018-09-05T11:51:37.642Z,2.40
2018-09-05T11:54:03.641Z,2.50
2018-09-05T11:56:29.657Z,2.60
2018-09-05T11:58:55.689Z,2.57
2018-09-05T12:01:21.697Z,2.90
2018-09-05T12:03:48.477Z,2.63
2018-09-05T12:06:14.520Z,2.77
2018-09-05T12:08:40.546Z,2.83
2018-09-05T12:11:06.562Z,2.70
2018-09-05T12:13:32.605Z,2.50
2018-09-05T12:15:58.619Z,2.40
2018-09-05T12:18:25.441Z,2.60
2018-09-05T12:20:53.340Z,2.70
2018-09-05T12:23:19.680Z,2.70
2018-09-05T12:25:47.708Z,2.80
2018-09-05T12:28:15.160Z,2.57
2018-09-05T12:30:41.221Z,2.30
2018-09-05T12:33:07.419Z,2.80
2018-09-05T12:35:33.469Z,2.60
2018-09-05T12:38:00.526Z,2.63
2018-09-05T12:40:29.038Z,2.43
2018-09-05T12:42:56.385Z,2.50
2018-09-05T12:45:23.139Z,2.70
2018-09-05T12:47:49.185Z,2.43
2018-09-05T12:50:15.307Z,2.33
2018-09-05T12:52:41.660Z,2.70
2018-09-05T12:55:07.698Z,2.27
2018-09-05T12:57:33.744Z,2.43
2018-09-05T12:59:59.759Z,2.23
2018-09-05T13:02:25.733Z,2.43
2018-09-05T13:04:51.805Z,2.30
2018-09-05T13:07:17.811Z,2.63
2018-09-05T13:09:43.816Z,2.40
2018-09-05T13:12:09.870Z,2.43
2018-09-05T13:14:35.917Z,2.23
2018-09-05T13:17:01.995Z,2.03
2018-09-05T13:19:27.967Z,2.30
2018-09-05T13:21:53.988Z,2.80
2018-09-05T13:24:20.042Z,2.20
2018-09-05T13:26:46.957Z,2.50
2018-09-05T13:29:12.954Z,2.40
2018-09-05T13:31:38.991Z,2.60
2018-09-05T13:34:05.031Z,2.67
2018-09-05T13:36:31.076Z,2.50
2018-09-05T13:38:57.053Z,2.40
2018-09-05T13:41:23.071Z,2.77
2018-09-05T13:43:49.071Z,2.53
2018-09-05T13:46:15.111Z,2.80
2018-09-05T13:48:41.163Z,2.60
2018-09-05T13:51:07.168Z,2.30
2018-09-05T13:53:33.217Z,2.67
2018-09-05T13:55:59.182Z,2.43
2018-09-05T13:58:25.231Z,2.50
2018-09-05T14:00:51.299Z,2.53
2018-09-05T14:03:17.383Z,2.77
2018-09-05T14:05:43.389Z,2.50
2018-09-05T14:08:12.218Z,2.37
2018-09-05T14:10:38.900Z,2.20
2018-09-05T14:13:05.193Z,2.40
2018-09-05T14:15:31.288Z,1.77
2018-09-05T14:17:57.323Z,2.10
2018-09-05T14:20:23.895Z,2.07
2018-09-05T14:22:50.090Z,2.00
2018-09-05T14:25:16.156Z,2.13
2018-09-05T14:27:42.144Z,1.90
2018-09-05T14:30:08.194Z,1.70
2018-09-05T14:32:34.272Z,2.10
2018-09-05T14:35:00.313Z,1.80
2018-09-05T14:37:26.392Z,2.33
2018-09-05T14:39:53.180Z,2.30
2018-09-05T14:42:19.239Z,2.17
2018-09-05T14:44:48.322Z,1.83
2018-09-05T14:47:14.625Z,2.33
2018-09-05T14:49:40.800Z,2.23
2018-09-05T14:52:06.971Z,2.30
2018-09-05T14:54:33.699Z,2.30
2018-09-05T14:56:59.719Z,2.20
2018-09-05T14:59:25.702Z,2.00
2018-09-05T15:01:51.740Z,1.80
2018-09-05T15:04:17.743Z,2.13
2018-09-05T15:06:43.779Z,1.90
2018-09-05T15:09:09.807Z,1.90
2018-09-05T15:11:35.982Z,1.90
2018-09-05T15:14:02.013Z,1.57
2018-09-05T15:16:27.996Z,1.67
2018-09-05T15:18:54.949Z,2.17
2018-09-05T15:21:24.371Z,1.90
2018-09-05T15:23:50.421Z,2.13
2018-09-05T15:26:16.450Z,2.00
2018-09-05T15:28:43.285Z,1.90
2018-09-05T15:31:09.338Z,1.80
2018-09-05T15:33:36.858Z,1.97
2018-09-05T15:36:02.991Z,1.60
2018-09-05T15:38:29.144Z,2.00
2018-09-05T15:40:55.167Z,1.93
2018-09-05T15:43:22.077Z,2.30
2018-09-05T15:45:48.236Z,1.83
2018-09-05T15:48:15.389Z,1.90
2018-09-05T15:50:42.178Z,2.10
2018-09-05T15:53:08.209Z,2.20
2018-09-05T15:55:34.261Z,2.20
2018-09-05T16:00:32.505Z,2.20
2018-09-05T16:02:58.450Z,2.53
2018-09-05T16:05:24.423Z,2.17
2018-09-05T16:07:50.401Z,2.30
2018-09-05T16:10:16.383Z,2.50
2018-09-05T16:12:42.369Z,2.50
2018-09-05T16:15:09.175Z,2.30
2018-09-05T16:17:35.137Z,2.60
2018-09-05T16:20:01.896Z,2.33
2018-09-05T16:22:27.897Z,2.50
2018-09-05T16:24:53.918Z,2.07
2018-09-05T16:27:19.926Z,2.30
2018-09-05T16:29:45.978Z,2.73
2018-09-05T16:32:11.977Z,2.83
2018-09-05T16:34:37.965Z,2.37
2018-09-05T16:37:03.973Z,2.73
2018-09-05T16:39:29.938Z,2.40
2018-09-05T16:41:55.885Z,2.50
2018-09-05T16:44:21.901Z,2.80
2018-09-05T16:46:47.892Z,2.40
2018-09-05T16:49:13.908Z,2.13
2018-09-05T16:51:39.896Z,2.70
2018-09-05T16:54:05.867Z,2.87
2018-09-05T16:56:31.844Z,2.80
2018-09-05T16:58:58.552Z,2.60
2018-09-05T17:01:24.527Z,3.10
2018-09-05T17:03:51.239Z,2.53
2018-09-05T17:06:17.228Z,2.73
2018-09-05T17:08:43.217Z,2.67
2018-09-05T17:11:09.278Z,2.50
2018-09-05T17:13:35.916Z,2.47
2018-09-05T17:16:01.915Z,2.80
2018-09-05T17:18:27.907Z,2.47
2018-09-05T17:20:53.920Z,2.53
2018-09-05T17:23:19.931Z,2.30
2018-09-05T17:25:45.916Z,2.70
2018-09-05T17:28:11.884Z,2.80
2018-09-05T17:30:37.833Z,2.53
2018-09-05T17:33:03.819Z,2.43
2018-09-05T17:35:29.778Z,2.30
2018-09-05T17:37:55.861Z,2.83
2018-09-05T17:40:21.849Z,2.20
2018-09-05T17:42:47.844Z,2.77
2018-09-05T17:45:13.820Z,2.57
2018-09-05T17:47:39.819Z,2.80
2018-09-05T17:50:05.787Z,2.60
2018-09-05T18:36:24.523Z,2.73
2018-09-05T18:38:50.826Z,2.40
2018-09-05T18:41:17.105Z,2.83
2018-09-05T18:43:43.489Z,2.90
2018-09-05T18:46:09.632Z,2.57
2018-09-05T18:48:35.911Z,2.83
2018-09-05T18:51:02.083Z,2.80
2018-09-05T18:53:28.300Z,2.73
2018-09-05T18:55:54.470Z,2.77
2018-09-05T18:58:20.581Z,2.20
2018-09-05T19:00:54.061Z,2.70
2018-09-05T19:03:25.914Z,2.50
2018-09-05T19:05:54.312Z,2.63
2018-09-05T19:08:30.322Z,2.10
2018-09-05T19:10:59.636Z,2.90
2018-09-05T19:13:25.816Z,2.83
2018-09-05T19:15:55.008Z,2.43
2018-09-05T19:18:27.234Z,3.17
2018-09-05T19:23:30.437Z,2.67
2018-09-05T19:25:59.195Z,3.13
2018-09-05T19:28:26.265Z,2.80
2018-09-05T19:30:52.424Z,2.80
2018-09-05T19:33:18.647Z,3.17
2018-09-05T19:35:45.700Z,2.90
2018-09-05T19:38:11.763Z,3.47
2018-09-05T19:46:02.379Z,3.67
2018-09-05T19:48:30.390Z,2.80
2018-09-05T19:50:57.425Z,3.20
2018-09-05T19:53:27.820Z,2.90
2018-09-05T19:55:59.018Z,3.10
2018-09-05T19:58:25.800Z,3.53
2018-09-05T20:00:58.457Z,3.60
2018-09-05T20:03:25.355Z,3.00
2018-09-05T20:05:55.147Z,2.97
2018-09-05T20:08:22.202Z,3.43
2018-09-05T20:10:49.703Z,3.50
2018-09-05T20:13:19.028Z,3.27
2018-09-05T20:15:45.185Z,3.33
2018-09-05T20:18:13.967Z,3.40
2018-09-05T20:20:40.683Z,3.00
2018-09-05T20:23:08.415Z,3.30
2018-09-05T20:25:42.912Z,2.70
2018-09-05T20:28:14.562Z,3.00
2018-09-05T20:30:42.376Z,2.60
2018-09-05T20:33:12.809Z,3.07
2018-09-05T20:35:38.971Z,2.80
2018-09-05T20:38:05.131Z,3.27
2018-09-05T20:40:34.564Z,3.00
2018-09-05T20:43:01.627Z,3.00
2018-09-05T20:45:27.709Z,3.57
2018-09-05T20:47:53.811Z,3.00
2018-09-05T20:50:19.892Z,3.10
2018-09-05T20:52:48.528Z,3.30
2018-09-05T20:55:16.427Z,3.43
2018-09-05T20:57:42.529Z,2.90
2018-09-05T21:00:08.647Z,3.40
2018-09-05T21:02:35.144Z,3.63
2018-09-05T21:05:05.216Z,3.23
2018-09-05T21:07:48.231Z,3.40
2018-09-05T21:10:19.784Z,3.00
2018-09-05T21:12:51.840Z,3.50
2018-09-05T21:15:19.929Z,3.30
2018-09-05T21:17:46.028Z,3.07
2018-09-05T21:20:12.095Z,3.27
2018-09-05T21:22:38.996Z,3.53
2018-09-05T21:25:05.987Z,3.63
2018-09-05T21:27:32.015Z,3.40
2018-09-05T21:29:58.782Z,3.70
2018-09-05T21:32:25.596Z,3.40
2018-09-05T21:34:51.927Z,3.97
2018-09-05T21:37:18.728Z,3.87
2018-09-05T21:39:44.806Z,3.77
2018-09-05T21:42:10.797Z,3.70
2018-09-05T21:44:36.838Z,3.90
2018-09-05T21:47:02.826Z,4.37
2018-09-05T21:49:28.868Z,4.63
2018-09-05T21:51:54.853Z,4.40
2018-09-05T21:54:20.862Z,4.33
2018-09-05T21:56:46.928Z,4.40
2018-09-05T21:59:12.928Z,5.20
2018-09-05T22:01:38.957Z,4.13
2018-09-05T22:04:04.938Z,4.67
2018-09-05T22:06:30.941Z,4.93
2018-09-05T22:08:56.976Z,3.80
2018-09-05T22:11:23.065Z,4.87
2018-09-05T22:13:49.268Z,4.93
2018-09-05T22:16:16.004Z,4.93
2018-09-05T22:18:42.752Z,4.27
2018-09-05T22:21:08.803Z,4.90
2018-09-05T22:23:34.846Z,4.53
2018-09-05T22:26:01.641Z,5.13
2018-09-05T22:28:27.661Z,5.57
2018-09-05T22:30:53.697Z,5.20
2018-09-05T22:33:19.745Z,6.00
2018-09-05T22:35:46.196Z,5.47
2018-09-05T22:38:12.250Z,5.40
2018-09-05T22:40:39.044Z,6.43
2018-09-05T22:43:05.149Z,6.20
2018-09-05T22:45:31.265Z,6.57
2018-09-05T22:47:57.346Z,5.77
2018-09-05T22:50:23.433Z,6.60
2018-09-05T22:52:49.528Z,6.63
2018-09-05T22:55:15.518Z,6.60
2018-09-05T22:57:41.603Z,6.27
2018-09-05T23:00:07.628Z,6.40
2018-09-05T23:02:33.712Z,6.97
2018-09-05T23:04:59.734Z,6.90
2018-09-05T23:07:25.850Z,6.67
2018-09-05T23:09:51.846Z,6.40
2018-09-05T23:12:18.561Z,6.67
2018-09-05T23:14:44.598Z,6.53
2018-09-05T23:17:10.615Z,7.57
2018-09-05T23:19:36.629Z,7.17
2018-09-05T23:22:02.642Z,6.63
2018-09-05T23:24:28.683Z,7.23
2018-09-05T23:26:54.667Z,7.50
2018-09-05T23:29:21.434Z,7.40
2018-09-05T23:31:47.476Z,7.23
2018-09-05T23:34:13.605Z,7.53
2018-09-05T23:36:39.616Z,7.40
2018-09-05T23:39:06.341Z,7.00
2018-09-05T23:41:32.400Z,8.17
2018-09-05T23:43:58.443Z,8.17
2018-09-05T23:46:24.468Z,7.90
2018-09-05T23:48:50.494Z,7.70
2018-09-05T23:51:16.526Z,7.97
2018-09-05T23:53:42.517Z,8.23
2018-09-05T23:56:08.564Z,8.17
2018-09-05T23:58:34.566Z,8.27
